createdAt,value
2023-05-10T00:00:33.040Z,11.02
2023-05-10T00:01:34.981Z,11.52
2023-05-10T00:03:38.017Z,11.57
2023-05-10T00:04:39.482Z,11.15
2023-05-10T00:05:40.953Z,12.55
2023-05-10T00:06:42.361Z,12.05
2023-05-10T00:07:45.858Z,9.77
2023-05-10T00:08:47.407Z,11.13
2023-05-10T00:09:48.796Z,12.02
2023-05-10T00:10:50.391Z,11.20
2023-05-10T00:11:51.798Z,12.95
2023-05-10T00:12:53.255Z,12.13
2023-05-10T00:13:55.232Z,12.77
2023-05-10T00:15:57.969Z,11.15
2023-05-10T00:16:59.553Z,12.10
2023-05-10T00:18:01.259Z,10.27
2023-05-10T00:19:02.806Z,13.68
2023-05-10T00:20:05.807Z,13.13
2023-05-10T00:21:07.470Z,13.90
2023-05-10T00:22:08.933Z,12.77
2023-05-10T00:23:10.365Z,10.88
2023-05-10T00:24:11.790Z,12.65
2023-05-10T00:25:13.181Z,11.05
2023-05-10T00:26:14.741Z,11.80
2023-05-10T00:27:16.173Z,10.65
2023-05-10T00:28:17.576Z,10.73
2023-05-10T00:29:19.012Z,14.52
2023-05-10T00:30:23.361Z,10.52
2023-05-10T00:31:24.814Z,18.52
2023-05-10T00:32:26.276Z,11.43
2023-05-10T00:33:27.911Z,10.05
2023-05-10T00:34:29.335Z,11.63
2023-05-10T00:35:30.795Z,11.23
2023-05-10T00:36:32.477Z,11.77
2023-05-10T00:37:33.952Z,13.93
2023-05-10T00:38:35.623Z,9.55
2023-05-10T00:39:37.062Z,10.80
2023-05-10T00:40:38.731Z,10.57
2023-05-10T00:41:40.156Z,10.90
2023-05-10T00:42:41.620Z,11.18
2023-05-10T00:43:43.130Z,14.68
2023-05-10T00:44:44.531Z,10.93
2023-05-10T00:45:46.099Z,13.85
2023-05-10T00:46:48.845Z,14.48
2023-05-10T00:47:50.431Z,14.43
2023-05-10T00:48:51.969Z,12.80
2023-05-10T00:49:53.462Z,15.55
2023-05-10T00:50:54.928Z,14.23
2023-05-10T00:51:56.715Z,12.25
2023-05-10T00:52:59.952Z,12.60
2023-05-10T00:54:01.494Z,13.65
2023-05-10T00:55:04.320Z,10.88
2023-05-10T00:56:06.425Z,10.40
2023-05-10T00:57:10.847Z,11.45
2023-05-10T00:58:13.207Z,17.73
2023-05-10T00:59:15.008Z,15.23
2023-05-10T01:00:19.769Z,10.13
2023-05-10T01:01:21.472Z,11.82
2023-05-10T01:02:22.962Z,11.00
2023-05-10T01:03:24.560Z,12.93
2023-05-10T01:04:29.348Z,10.52
2023-05-10T01:05:31.109Z,12.10
2023-05-10T01:06:33.220Z,11.38
2023-05-10T01:07:34.649Z,11.07
2023-05-10T01:08:36.188Z,11.60
2023-05-10T01:09:37.848Z,11.85
2023-05-10T01:10:39.350Z,13.18
2023-05-10T01:11:41.129Z,10.50
2023-05-10T01:12:46.034Z,12.73
2023-05-10T01:13:54.908Z,12.18
2023-05-10T01:14:56.392Z,10.65
2023-05-10T01:15:58.623Z,13.10
2023-05-10T01:17:01.780Z,15.43
2023-05-10T01:18:04.179Z,12.30
2023-05-10T01:19:17.994Z,12.05
2023-05-10T01:20:19.844Z,13.80
2023-05-10T01:22:53.081Z,10.95
2023-05-10T01:23:54.444Z,10.98
2023-05-10T01:25:17.759Z,12.35
2023-05-10T01:26:31.331Z,10.85
2023-05-10T01:27:48.681Z,12.77
2023-05-10T01:29:22.373Z,10.50
2023-05-10T01:30:48.572Z,11.57
2023-05-10T01:31:50.053Z,13.10
2023-05-10T01:33:00.509Z,10.38
2023-05-10T01:34:17.974Z,13.45
2023-05-10T01:35:27.760Z,10.80
2023-05-10T01:36:39.130Z,11.05
2023-05-10T01:37:46.254Z,12.45
2023-05-10T01:38:58.846Z,11.52
2023-05-10T01:40:24.235Z,10.43
2023-05-10T01:41:48.785Z,14.23
2023-05-10T01:42:54.358Z,18.15
2023-05-10T01:44:10.704Z,11.88
2023-05-10T01:45:22.316Z,12.45
2023-05-10T01:46:36.074Z,12.68
2023-05-10T01:47:45.539Z,11.85
2023-05-10T01:48:54.891Z,13.15
2023-05-10T01:50:00.793Z,13.27
2023-05-10T01:51:02.921Z,11.43
2023-05-10T01:52:16.834Z,12.02
2023-05-10T01:54:23.343Z,11.98
2023-05-10T01:55:28.401Z,12.63
2023-05-10T01:56:32.983Z,11.98
2023-05-10T01:57:36.799Z,11.80
2023-05-10T01:58:44.850Z,12.63
2023-05-10T02:00:53.296Z,10.13
2023-05-10T02:01:57.761Z,14.85
2023-05-10T02:03:02.344Z,12.57
2023-05-10T02:04:04.328Z,10.98
2023-05-10T02:06:13.717Z,14.05
2023-05-10T02:07:15.516Z,10.57
2023-05-10T02:08:19.017Z,11.25
2023-05-10T02:09:22.598Z,14.50
2023-05-10T02:10:24.239Z,12.45
2023-05-10T02:11:27.161Z,16.15
2023-05-10T02:12:30.736Z,14.73
2023-05-10T02:13:35.126Z,12.68
2023-05-10T02:14:38.261Z,13.25
2023-05-10T02:15:41.076Z,12.15
2023-05-10T02:16:43.998Z,11.45
2023-05-10T02:17:48.171Z,10.68
2023-05-10T02:18:51.265Z,13.25
2023-05-10T02:19:54.113Z,13.98
2023-05-10T02:20:57.545Z,15.18
2023-05-10T02:22:01.815Z,13.05
2023-05-10T02:23:04.575Z,12.85
2023-05-10T02:24:07.166Z,11.85
2023-05-10T02:25:10.107Z,12.20
2023-05-10T02:26:13.010Z,13.82
2023-05-10T02:27:16.581Z,11.95
2023-05-10T02:28:19.036Z,12.88
2023-05-10T02:29:21.540Z,12.90
2023-05-10T02:30:24.225Z,14.38
2023-05-10T02:31:26.958Z,13.13
2023-05-10T02:32:28.755Z,12.15
2023-05-10T02:33:32.495Z,13.10
2023-05-10T02:34:34.318Z,11.93
2023-05-10T02:36:41.015Z,14.00
2023-05-10T02:37:43.436Z,13.85
2023-05-10T02:38:47.041Z,13.23
2023-05-10T02:39:51.644Z,15.85
2023-05-10T02:40:54.617Z,12.50
2023-05-10T02:41:57.933Z,14.48
2023-05-10T02:43:02.434Z,10.77
2023-05-10T02:44:07.669Z,13.18
2023-05-10T02:45:13.355Z,14.82
2023-05-10T02:46:14.858Z,13.82
2023-05-10T02:47:16.384Z,12.30
2023-05-10T02:48:18.357Z,13.70
2023-05-10T02:50:22.474Z,12.68
2023-05-10T02:51:29.124Z,14.52
2023-05-10T02:52:56.173Z,13.13
2023-05-10T02:54:02.899Z,12.70
2023-05-10T02:55:06.834Z,11.43
2023-05-10T02:56:29.470Z,12.95
2023-05-10T02:57:34.919Z,13.38
2023-05-10T02:58:36.482Z,14.85
2023-05-10T02:59:38.066Z,15.02
2023-05-10T03:00:39.545Z,11.63
2023-05-10T03:01:41.068Z,13.73
2023-05-10T03:02:42.562Z,15.38
2023-05-10T03:03:43.943Z,12.35
2023-05-10T03:04:45.414Z,12.95
2023-05-10T03:05:46.894Z,14.30
2023-05-10T03:06:48.874Z,12.63
2023-05-10T03:08:52.281Z,14.30
2023-05-10T03:09:53.833Z,13.73
2023-05-10T03:11:26.098Z,13.00
2023-05-10T03:12:30.611Z,13.52
2023-05-10T03:13:49.906Z,13.77
2023-05-10T03:15:04.646Z,11.93
2023-05-10T03:16:13.194Z,13.05
2023-05-10T03:17:29.350Z,16.23
2023-05-10T03:18:39.865Z,12.95
2023-05-10T03:19:55.980Z,11.45
2023-05-10T03:21:02.712Z,13.35
2023-05-10T03:22:11.555Z,13.57
2023-05-10T03:23:18.574Z,15.77
2023-05-10T03:24:23.310Z,12.77
2023-05-10T03:25:25.455Z,11.27
2023-05-10T03:26:28.390Z,13.55
2023-05-10T03:27:30.916Z,11.80
2023-05-10T03:28:34.037Z,13.30
2023-05-10T03:29:37.091Z,14.23
2023-05-10T03:30:39.320Z,12.15
2023-05-10T03:31:40.990Z,13.23
2023-05-10T03:32:42.600Z,13.57
2023-05-10T03:33:51.492Z,13.60
2023-05-10T03:34:52.917Z,12.65
2023-05-10T03:35:54.339Z,12.60
2023-05-10T03:36:55.803Z,12.48
2023-05-10T03:37:57.218Z,13.52
2023-05-10T03:38:58.702Z,13.43
2023-05-10T03:40:00.166Z,14.35
2023-05-10T03:41:01.607Z,12.95
2023-05-10T03:42:03.051Z,13.43
2023-05-10T03:43:04.519Z,13.13
2023-05-10T03:44:06.064Z,12.43
2023-05-10T03:45:08.561Z,10.35
2023-05-10T03:46:10.047Z,13.45
2023-05-10T03:47:11.477Z,12.90
2023-05-10T03:48:14.639Z,13.02
2023-05-10T03:49:16.204Z,12.52
2023-05-10T03:50:18.274Z,11.98
2023-05-10T03:51:19.998Z,12.02
2023-05-10T03:52:21.606Z,13.20
2023-05-10T03:53:24.001Z,14.65
2023-05-10T03:54:25.420Z,13.70
2023-05-10T03:55:27.054Z,12.80
2023-05-10T03:56:28.496Z,10.90
2023-05-10T03:57:30.130Z,13.60
2023-05-10T03:58:31.596Z,13.38
2023-05-10T03:59:33.025Z,13.02
2023-05-10T04:00:34.511Z,11.57
2023-05-10T04:01:36.126Z,13.13
2023-05-10T04:02:38.441Z,10.57
2023-05-10T04:03:40.281Z,16.33
2023-05-10T04:04:44.657Z,13.05
2023-05-10T04:05:46.060Z,11.55
2023-05-10T04:06:47.426Z,15.00
2023-05-10T04:07:50.243Z,11.57
2023-05-10T04:08:51.686Z,10.85
2023-05-10T04:09:53.343Z,11.00
2023-05-10T04:10:54.755Z,12.32
2023-05-10T04:11:56.246Z,14.80
2023-05-10T04:12:57.696Z,12.35
2023-05-10T04:13:59.148Z,10.27
2023-05-10T04:15:01.194Z,12.38
2023-05-10T04:16:03.165Z,11.80
2023-05-10T04:18:08.564Z,13.75
2023-05-10T04:19:10.356Z,12.00
2023-05-10T04:20:12.402Z,12.50
2023-05-10T04:21:14.633Z,10.75
2023-05-10T04:22:16.890Z,11.70
2023-05-10T04:23:18.376Z,13.73
2023-05-10T04:24:19.822Z,12.13
2023-05-10T04:25:21.304Z,12.05
2023-05-10T04:26:23.036Z,11.93
2023-05-10T04:27:24.448Z,13.02
2023-05-10T04:28:27.188Z,13.18
2023-05-10T04:29:28.762Z,14.07
2023-05-10T04:30:30.533Z,13.00
2023-05-10T04:31:32.001Z,11.60
2023-05-10T04:32:33.496Z,9.25
2023-05-10T04:33:35.348Z,12.40
2023-05-10T04:34:37.696Z,13.32
2023-05-10T04:35:40.852Z,15.18
2023-05-10T04:36:42.233Z,14.50
2023-05-10T04:37:44.135Z,12.68
2023-05-10T04:38:45.566Z,14.32
2023-05-10T04:39:47.058Z,11.15
2023-05-10T04:40:48.600Z,10.45
2023-05-10T04:41:50.005Z,12.05
2023-05-10T04:42:51.428Z,10.73
2023-05-10T04:43:52.859Z,11.43
2023-05-10T04:44:54.293Z,11.52
2023-05-10T04:45:57.865Z,11.57
2023-05-10T04:47:00.121Z,13.40
2023-05-10T04:48:01.554Z,11.57
2023-05-10T04:49:02.983Z,9.88
2023-05-10T04:50:05.277Z,10.80
2023-05-10T04:51:07.421Z,12.25
2023-05-10T04:52:08.826Z,11.18
2023-05-10T04:53:10.225Z,10.55
2023-05-10T04:54:11.631Z,8.95
2023-05-10T04:55:13.108Z,9.32
2023-05-10T04:56:14.519Z,9.05
2023-05-10T04:57:16.008Z,10.30
2023-05-10T04:58:17.635Z,9.80
2023-05-10T04:59:19.082Z,8.95
2023-05-10T05:00:20.857Z,11.93
2023-05-10T05:01:23.973Z,12.75
2023-05-10T05:02:25.722Z,11.15
2023-05-10T05:03:27.268Z,9.02
2023-05-10T05:04:28.719Z,10.82
2023-05-10T05:05:30.168Z,10.13
2023-05-10T05:06:31.577Z,10.35
2023-05-10T05:07:32.978Z,10.23
2023-05-10T05:08:34.417Z,9.80
2023-05-10T05:09:35.900Z,10.13
2023-05-10T05:10:37.436Z,9.15
2023-05-10T05:11:39.172Z,7.32
2023-05-10T05:12:40.579Z,8.07
2023-05-10T05:13:41.974Z,9.18
2023-05-10T05:14:43.364Z,8.88
2023-05-10T05:15:44.778Z,11.23
2023-05-10T05:16:46.187Z,8.80
2023-05-10T05:17:47.896Z,10.15
2023-05-10T05:18:49.397Z,9.38
2023-05-10T05:19:50.785Z,11.40
2023-05-10T05:20:52.195Z,9.05
2023-05-10T05:21:53.590Z,9.52
2023-05-10T05:22:55.254Z,9.27
2023-05-10T05:23:56.704Z,10.15
2023-05-10T05:25:03.332Z,8.48
2023-05-10T05:26:04.929Z,10.75
2023-05-10T05:27:06.941Z,9.38
2023-05-10T05:28:08.479Z,9.57
2023-05-10T05:29:09.865Z,9.07
2023-05-10T05:30:12.047Z,13.07
2023-05-10T05:31:13.550Z,8.98
2023-05-10T05:32:15.019Z,8.80
2023-05-10T05:33:16.497Z,7.60
2023-05-10T05:34:17.908Z,8.50
2023-05-10T05:35:19.472Z,10.10
2023-05-10T05:36:21.070Z,9.77
2023-05-10T05:37:23.415Z,12.23
2023-05-10T05:38:24.874Z,10.10
2023-05-10T05:39:26.278Z,9.52
2023-05-10T05:40:27.702Z,8.95
2023-05-10T05:41:29.106Z,9.32
2023-05-10T05:42:32.234Z,14.77
2023-05-10T05:43:34.603Z,10.35
2023-05-10T05:44:37.720Z,9.70
2023-05-10T05:45:39.391Z,9.18
2023-05-10T05:46:41.087Z,7.85
2023-05-10T05:47:42.591Z,9.15
2023-05-10T05:48:44.047Z,7.15
2023-05-10T05:49:48.044Z,9.60
2023-05-10T05:50:49.481Z,6.57
2023-05-10T05:51:51.314Z,8.90
2023-05-10T05:52:52.822Z,12.63
2023-05-10T05:53:54.471Z,8.65
2023-05-10T05:54:55.897Z,8.32
2023-05-10T05:55:59.547Z,7.70
2023-05-10T05:57:01.786Z,8.18
2023-05-10T05:58:03.883Z,8.65
2023-05-10T05:59:05.309Z,7.45
2023-05-10T06:00:07.523Z,7.20
2023-05-10T06:01:09.527Z,7.97
2023-05-10T06:02:11.574Z,6.35
2023-05-10T06:03:13.188Z,6.35
2023-05-10T06:04:15.048Z,7.70
2023-05-10T06:05:16.856Z,7.18
2023-05-10T06:07:19.780Z,7.15
2023-05-10T06:08:21.437Z,6.78
2023-05-10T06:09:24.652Z,7.50
2023-05-10T06:10:26.446Z,8.57
2023-05-10T06:11:27.910Z,12.02
2023-05-10T06:12:29.449Z,6.70
2023-05-10T06:13:33.302Z,7.60
2023-05-10T06:14:34.952Z,6.93
2023-05-10T06:15:36.414Z,8.50
2023-05-10T06:16:38.041Z,7.63
2023-05-10T06:17:39.850Z,8.57
2023-05-10T06:19:42.755Z,8.70
2023-05-10T06:20:44.214Z,7.07
2023-05-10T06:21:45.632Z,7.57
2023-05-10T06:22:47.215Z,6.68
2023-05-10T06:23:48.695Z,6.95
2023-05-10T06:24:50.676Z,6.57
2023-05-10T06:25:52.678Z,11.70
2023-05-10T06:26:54.096Z,9.32
2023-05-10T06:27:58.915Z,9.27
2023-05-10T06:29:00.344Z,7.03
2023-05-10T06:30:11.627Z,5.18
2023-05-10T06:31:13.678Z,5.68
2023-05-10T06:32:15.153Z,6.28
2023-05-10T06:33:16.998Z,12.73
2023-05-10T06:34:18.437Z,7.47
2023-05-10T06:35:20.069Z,7.55
2023-05-10T06:36:21.765Z,10.68
2023-05-10T06:37:23.247Z,9.65
2023-05-10T06:38:24.871Z,9.75
2023-05-10T06:39:26.253Z,6.90
2023-05-10T06:40:27.745Z,7.05
2023-05-10T06:41:29.156Z,7.63
2023-05-10T06:42:30.560Z,7.90
2023-05-10T06:43:32.550Z,6.10
2023-05-10T06:44:34.188Z,6.55
2023-05-10T06:45:35.730Z,7.30
2023-05-10T06:46:37.385Z,8.10
2023-05-10T06:47:39.457Z,8.25
2023-05-10T06:48:41.361Z,7.10
2023-05-10T06:49:42.792Z,10.85
2023-05-10T06:50:44.941Z,9.80
2023-05-10T06:51:46.422Z,5.68
2023-05-10T06:52:48.219Z,9.40
2023-05-10T06:53:49.663Z,6.65
2023-05-10T06:54:51.316Z,7.40
2023-05-10T06:55:52.978Z,7.38
2023-05-10T06:56:54.877Z,8.63
2023-05-10T06:58:57.797Z,5.90
2023-05-10T06:59:59.959Z,7.95
2023-05-10T07:01:05.272Z,6.90
2023-05-10T07:02:07.015Z,8.52
2023-05-10T07:03:08.509Z,8.38
2023-05-10T07:04:10.105Z,5.22
2023-05-10T07:05:11.569Z,5.85
2023-05-10T07:06:21.666Z,6.25
2023-05-10T07:07:32.585Z,7.75
2023-05-10T07:08:34.773Z,5.10
2023-05-10T07:09:36.385Z,5.60
2023-05-10T07:10:37.796Z,6.55
2023-05-10T07:11:39.214Z,6.63
2023-05-10T07:12:40.692Z,7.82
2023-05-10T07:13:45.020Z,7.72
2023-05-10T07:14:46.683Z,7.47
2023-05-10T07:15:48.106Z,7.25
2023-05-10T07:16:50.346Z,8.63
2023-05-10T07:17:52.833Z,9.15
2023-05-10T07:18:54.591Z,9.05
2023-05-10T07:19:56.094Z,6.43
2023-05-10T07:20:58.168Z,5.90
2023-05-10T07:21:59.573Z,7.82
2023-05-10T07:23:00.975Z,4.72
2023-05-10T07:24:02.410Z,6.45
2023-05-10T07:25:04.209Z,4.93
2023-05-10T07:26:05.715Z,4.75
2023-05-10T07:27:07.271Z,7.93
2023-05-10T07:28:08.688Z,6.82
2023-05-10T07:29:10.935Z,5.43
2023-05-10T07:30:13.107Z,7.15
2023-05-10T07:31:14.553Z,8.77
2023-05-10T07:32:16.052Z,4.75
2023-05-10T07:33:17.773Z,8.23
2023-05-10T07:34:19.291Z,7.45
2023-05-10T07:35:20.864Z,5.93
2023-05-10T07:36:22.306Z,6.60
2023-05-10T07:37:23.761Z,7.07
2023-05-10T07:38:25.226Z,7.70
2023-05-10T07:39:29.829Z,6.32
2023-05-10T07:40:31.447Z,7.47
2023-05-10T07:41:35.050Z,6.10
2023-05-10T07:42:37.226Z,7.72
2023-05-10T07:43:39.005Z,7.15
2023-05-10T07:44:40.394Z,9.38
2023-05-10T07:45:41.877Z,7.40
2023-05-10T07:46:43.285Z,5.55
2023-05-10T07:47:44.761Z,7.30
2023-05-10T07:48:46.432Z,5.80
2023-05-10T07:49:47.820Z,4.85
2023-05-10T07:50:49.240Z,6.47
2023-05-10T07:51:51.002Z,7.32
2023-05-10T07:52:52.544Z,7.20
2023-05-10T07:53:53.923Z,8.20
2023-05-10T07:54:55.627Z,6.35
2023-05-10T07:56:00.058Z,6.38
2023-05-10T07:57:01.525Z,5.72
2023-05-10T07:58:03.352Z,5.47
2023-05-10T07:59:05.916Z,6.03
2023-05-10T08:00:08.500Z,5.05
2023-05-10T08:01:09.906Z,5.35
2023-05-10T08:02:11.368Z,8.32
2023-05-10T08:03:13.016Z,4.60
2023-05-10T08:04:14.627Z,7.32
2023-05-10T08:05:16.434Z,9.35
2023-05-10T08:06:19.448Z,7.28
2023-05-10T08:07:20.847Z,6.57
2023-05-10T08:08:23.698Z,6.40
2023-05-10T08:09:25.474Z,5.43
2023-05-10T08:11:28.828Z,7.25
2023-05-10T08:13:32.359Z,7.30
2023-05-10T08:14:33.881Z,8.50
2023-05-10T08:15:35.409Z,7.03
2023-05-10T08:16:36.859Z,7.07
2023-05-10T08:17:38.323Z,6.70
2023-05-10T08:18:40.626Z,7.07
2023-05-10T08:19:42.048Z,5.78
2023-05-10T08:20:43.487Z,4.65
2023-05-10T08:21:44.905Z,7.50
2023-05-10T08:22:48.526Z,9.82
2023-05-10T08:23:50.929Z,7.22
2023-05-10T08:24:52.371Z,7.10
2023-05-10T08:25:53.863Z,6.10
2023-05-10T08:26:55.315Z,4.97
2023-05-10T08:27:56.788Z,7.50
2023-05-10T08:28:58.189Z,9.10
2023-05-10T08:29:59.596Z,6.72
2023-05-10T08:31:01.239Z,6.05
2023-05-10T08:32:02.735Z,5.00
2023-05-10T08:33:04.346Z,5.88
2023-05-10T08:34:05.971Z,5.35
2023-05-10T08:35:07.617Z,6.65
2023-05-10T08:36:09.193Z,13.00
2023-05-10T08:37:13.992Z,8.15
2023-05-10T08:38:15.691Z,8.25
2023-05-10T08:39:29.365Z,6.10
2023-05-10T08:40:31.691Z,7.47
2023-05-10T08:41:34.419Z,6.57
2023-05-10T08:42:41.117Z,6.50
2023-05-10T08:43:47.121Z,6.30
2023-05-10T08:44:49.732Z,13.73
2023-05-10T08:45:54.351Z,8.45
2023-05-10T08:46:56.550Z,9.52
2023-05-10T08:47:59.103Z,7.13
2023-05-10T08:49:05.070Z,6.53
2023-05-10T08:50:07.595Z,5.18
2023-05-10T08:51:15.747Z,7.68
2023-05-10T08:52:21.392Z,9.55
2023-05-10T08:53:27.497Z,6.57
2023-05-10T08:54:29.076Z,9.40
2023-05-10T08:55:31.049Z,11.30
2023-05-10T08:56:32.613Z,8.48
2023-05-10T08:57:34.215Z,6.28
2023-05-10T08:58:36.314Z,7.70
2023-05-10T08:59:40.320Z,5.35
2023-05-10T09:00:41.941Z,13.82
2023-05-10T09:01:46.437Z,7.30
2023-05-10T09:02:49.958Z,9.00
2023-05-10T09:03:51.687Z,5.10
2023-05-10T09:04:53.282Z,12.07
2023-05-10T09:05:56.828Z,7.22
2023-05-10T09:06:58.756Z,9.85
2023-05-10T09:08:01.510Z,11.95
2023-05-10T09:09:04.305Z,7.38
2023-05-10T09:10:06.726Z,10.10
2023-05-10T09:11:09.520Z,7.68
2023-05-10T09:12:12.509Z,5.85
2023-05-10T09:13:16.176Z,7.88
2023-05-10T09:14:18.571Z,8.02
2023-05-10T09:15:20.879Z,7.45
2023-05-10T09:16:22.810Z,8.82
2023-05-10T09:17:26.162Z,7.72
2023-05-10T09:18:28.185Z,7.88
2023-05-10T09:19:29.759Z,7.18
2023-05-10T09:20:32.049Z,5.90
2023-05-10T09:21:36.422Z,5.18
2023-05-10T09:22:38.668Z,6.07
2023-05-10T09:23:45.632Z,6.07
2023-05-10T09:24:48.823Z,8.38
2023-05-10T09:26:04.201Z,6.15
2023-05-10T09:27:06.196Z,5.40
2023-05-10T09:28:09.574Z,8.43
2023-05-10T09:29:11.022Z,8.23
2023-05-10T09:30:17.694Z,6.18
2023-05-10T09:31:19.505Z,7.35
2023-05-10T09:33:22.516Z,7.03
2023-05-10T09:34:30.677Z,4.50
2023-05-10T09:35:34.388Z,5.82
2023-05-10T09:36:35.802Z,4.65
2023-05-10T09:37:37.297Z,5.10
2023-05-10T09:38:53.509Z,7.82
2023-05-10T09:39:55.692Z,6.47
2023-05-10T09:40:58.679Z,6.13
2023-05-10T09:42:02.382Z,5.55
2023-05-10T09:43:07.728Z,7.90
2023-05-10T09:44:09.112Z,6.38
2023-05-10T09:45:10.941Z,6.93
2023-05-10T09:47:19.713Z,5.65
2023-05-10T09:48:24.880Z,5.32
2023-05-10T09:49:26.389Z,8.98
2023-05-10T09:50:28.260Z,6.32
2023-05-10T09:52:46.291Z,8.93
2023-05-10T09:53:47.872Z,14.35
2023-05-10T09:54:55.787Z,9.20
2023-05-10T09:55:57.202Z,5.30
2023-05-10T09:56:58.818Z,14.60
2023-05-10T09:58:02.275Z,11.77
2023-05-10T09:59:04.767Z,8.05
2023-05-10T10:00:07.061Z,10.75
2023-05-10T10:01:13.126Z,8.73
2023-05-10T10:02:14.772Z,7.10
2023-05-10T10:03:18.364Z,5.28
2023-05-10T10:04:22.002Z,7.10
2023-05-10T10:05:33.538Z,8.30
2023-05-10T10:06:41.353Z,5.70
2023-05-10T10:08:44.447Z,5.50
2023-05-10T10:09:46.409Z,5.43
2023-05-10T10:10:48.138Z,7.75
2023-05-10T10:11:49.637Z,8.05
2023-05-10T10:12:51.340Z,8.85
2023-05-10T10:13:52.897Z,5.05
2023-05-10T10:14:54.549Z,7.70
2023-05-10T10:15:56.285Z,7.03
2023-05-10T10:17:07.478Z,10.15
2023-05-10T10:18:15.463Z,7.82
2023-05-10T10:19:17.090Z,7.43
2023-05-10T10:20:20.080Z,5.25
2023-05-10T10:21:22.738Z,7.30
2023-05-10T10:22:24.174Z,6.88
2023-05-10T10:23:25.945Z,7.25
2023-05-10T10:25:29.189Z,5.18
2023-05-10T10:27:51.086Z,6.20
2023-05-10T10:30:19.534Z,9.40
2023-05-10T10:31:30.202Z,6.78
2023-05-10T10:32:56.613Z,8.75
2023-05-10T10:34:04.625Z,6.20
2023-05-10T10:35:07.607Z,7.65
2023-05-10T10:36:09.285Z,9.07
2023-05-10T10:37:10.763Z,6.03
2023-05-10T10:38:13.988Z,7.50
2023-05-10T10:39:16.877Z,9.02
2023-05-10T10:40:28.617Z,5.60
2023-05-10T10:41:35.533Z,7.57
2023-05-10T10:42:51.030Z,7.05
2023-05-10T10:44:31.742Z,5.07
2023-05-10T10:45:33.230Z,4.53
2023-05-10T10:46:35.436Z,5.53
2023-05-10T10:47:38.300Z,8.50
2023-05-10T10:48:40.030Z,11.43
2023-05-10T10:49:44.121Z,4.88
2023-05-10T10:50:47.126Z,5.00
2023-05-10T10:52:19.259Z,7.00
2023-05-10T10:53:20.733Z,6.25
2023-05-10T10:54:29.136Z,7.28
2023-05-10T10:55:31.301Z,5.25
2023-05-10T10:56:33.176Z,5.03
2023-05-10T10:57:41.344Z,5.65
2023-05-10T10:58:54.457Z,6.10
2023-05-10T11:00:21.186Z,8.88
2023-05-10T11:01:22.729Z,7.70
2023-05-10T11:02:35.713Z,6.32
2023-05-10T11:03:37.280Z,6.68
2023-05-10T11:04:47.777Z,9.60
2023-05-10T11:05:50.289Z,5.80
2023-05-10T11:06:51.732Z,7.55
2023-05-10T11:07:57.257Z,3.78
2023-05-10T11:08:58.808Z,4.65
2023-05-10T11:10:06.157Z,7.65
2023-05-10T11:11:08.397Z,6.35
2023-05-10T11:12:10.230Z,6.93
2023-05-10T11:13:11.647Z,8.63
2023-05-10T11:14:13.179Z,8.75
2023-05-10T11:15:14.838Z,8.15
2023-05-10T11:17:28.753Z,7.55
2023-05-10T11:18:31.541Z,8.10
2023-05-10T11:19:35.251Z,5.07
2023-05-10T11:20:40.506Z,7.32
2023-05-10T11:22:06.807Z,4.97
2023-05-10T11:23:16.788Z,5.82
2023-05-10T11:24:24.018Z,9.23
2023-05-10T11:25:29.058Z,7.30
2023-05-10T11:26:35.635Z,9.75
2023-05-10T11:27:38.788Z,10.15
2023-05-10T11:28:48.148Z,5.45
2023-05-10T11:29:52.937Z,14.90
2023-05-10T11:30:55.495Z,7.68
2023-05-10T11:32:00.947Z,5.22
2023-05-10T11:33:02.522Z,9.63
2023-05-10T11:34:04.056Z,8.30
2023-05-10T11:35:10.363Z,5.40
2023-05-10T11:36:15.992Z,12.15
2023-05-10T11:37:19.227Z,8.77
2023-05-10T11:38:20.900Z,9.82
2023-05-10T11:40:28.070Z,7.63
2023-05-10T11:42:31.606Z,5.00
2023-05-10T11:43:33.071Z,5.00
2023-05-10T11:44:34.672Z,8.63
2023-05-10T11:45:36.322Z,7.55
2023-05-10T11:47:42.047Z,9.30
2023-05-10T11:48:44.449Z,9.25
2023-05-10T11:50:47.713Z,7.78
2023-05-10T11:51:49.322Z,4.25
2023-05-10T11:52:58.092Z,5.05
2023-05-10T11:53:59.495Z,6.00
2023-05-10T11:55:01.108Z,8.07
2023-05-10T11:56:10.367Z,7.22
2023-05-10T11:57:11.893Z,6.55
2023-05-10T11:58:13.338Z,5.85
2023-05-10T11:59:15.688Z,4.65
2023-05-10T12:00:17.561Z,7.78
2023-05-10T12:01:19.228Z,3.85
2023-05-10T12:02:20.852Z,12.15
2023-05-10T12:04:24.059Z,6.38
2023-05-10T12:05:25.782Z,4.75
2023-05-10T12:07:29.275Z,5.25
2023-05-10T12:08:31.853Z,8.45
2023-05-10T12:09:43.105Z,6.03
2023-05-10T12:10:45.612Z,6.32
2023-05-10T12:11:47.223Z,6.38
2023-05-10T12:12:50.326Z,7.07
2023-05-10T12:13:52.571Z,8.35
2023-05-10T12:14:53.979Z,7.55
2023-05-10T12:15:58.805Z,5.75
2023-05-10T12:17:00.332Z,5.85
2023-05-10T12:18:02.284Z,9.02
2023-05-10T12:19:03.934Z,4.43
2023-05-10T12:21:36.425Z,11.13
2023-05-10T12:22:38.192Z,6.18
2023-05-10T12:23:40.698Z,10.18
2023-05-10T12:24:42.207Z,5.63
2023-05-10T12:25:44.194Z,22.92
2023-05-10T12:26:49.362Z,4.90
2023-05-10T12:27:58.198Z,10.95
2023-05-10T12:29:19.343Z,11.30
2023-05-10T12:30:28.209Z,5.72
2023-05-10T12:31:29.638Z,13.55
2023-05-10T12:32:44.844Z,7.38
2023-05-10T12:33:47.300Z,6.72
2023-05-10T12:34:49.056Z,7.25
2023-05-10T12:36:54.681Z,7.47
2023-05-10T12:37:56.088Z,6.88
2023-05-10T12:39:04.065Z,7.03
2023-05-10T12:40:12.089Z,8.68
2023-05-10T12:41:18.793Z,6.60
2023-05-10T12:42:20.317Z,6.63
2023-05-10T12:43:21.749Z,6.47
2023-05-10T12:44:23.194Z,4.85
2023-05-10T12:45:24.761Z,4.47
2023-05-10T12:46:28.641Z,6.82
2023-05-10T12:47:30.802Z,7.35
2023-05-10T12:48:32.628Z,9.10
2023-05-10T12:49:34.846Z,9.38
2023-05-10T12:50:36.476Z,8.98
2023-05-10T12:51:37.925Z,4.30
2023-05-10T12:52:39.333Z,4.28
2023-05-10T12:53:43.479Z,6.60
2023-05-10T12:54:46.989Z,5.07
2023-05-10T12:55:48.464Z,4.90
2023-05-10T12:56:49.877Z,6.80
2023-05-10T12:57:51.283Z,6.40
2023-05-10T12:58:52.691Z,6.50
2023-05-10T12:59:54.537Z,7.63
2023-05-10T13:00:57.360Z,5.55
2023-05-10T13:01:59.092Z,6.72
2023-05-10T13:04:02.087Z,6.72
2023-05-10T13:05:03.805Z,7.22
2023-05-10T13:06:05.994Z,6.38
2023-05-10T13:07:08.052Z,7.50
2023-05-10T13:08:09.469Z,12.13
2023-05-10T13:09:11.138Z,4.80
2023-05-10T13:11:17.495Z,7.20
2023-05-10T13:12:19.002Z,8.52
2023-05-10T13:13:20.445Z,8.45
2023-05-10T13:14:22.031Z,7.55
2023-05-10T13:15:23.832Z,7.05
2023-05-10T13:16:25.288Z,6.97
2023-05-10T13:17:26.797Z,6.63
2023-05-10T13:18:28.319Z,8.32
2023-05-10T13:19:29.824Z,8.18
2023-05-10T13:20:31.446Z,5.40
2023-05-10T13:21:32.880Z,4.70
2023-05-10T13:22:40.205Z,4.05
2023-05-10T13:23:42.217Z,6.10
2023-05-10T13:24:43.850Z,7.55
2023-05-10T13:25:45.262Z,5.15
2023-05-10T13:26:46.733Z,7.85
2023-05-10T13:27:48.173Z,6.95
2023-05-10T13:28:50.614Z,6.43
2023-05-10T13:29:52.048Z,6.28
2023-05-10T13:30:53.436Z,7.85
2023-05-10T13:31:55.039Z,6.18
2023-05-10T13:33:57.921Z,7.53
2023-05-10T13:34:59.324Z,4.97
2023-05-10T13:36:00.930Z,6.40
2023-05-10T13:37:02.724Z,7.80
2023-05-10T13:38:04.225Z,5.32
2023-05-10T13:39:06.288Z,7.43
2023-05-10T13:40:08.562Z,7.20
2023-05-10T13:41:10.121Z,4.63
2023-05-10T13:42:11.535Z,6.50
2023-05-10T13:43:12.993Z,7.95
2023-05-10T13:44:15.571Z,4.82
2023-05-10T13:45:17.190Z,6.85
2023-05-10T13:46:18.861Z,10.50
2023-05-10T13:47:22.497Z,5.65
2023-05-10T13:48:23.963Z,7.78
2023-05-10T13:49:25.430Z,6.93
2023-05-10T13:50:26.935Z,6.70
2023-05-10T13:51:28.357Z,6.97
2023-05-10T13:52:29.766Z,5.88
2023-05-10T13:53:31.369Z,8.10
2023-05-10T13:54:32.831Z,6.32
2023-05-10T13:55:34.615Z,4.95
2023-05-10T13:56:36.165Z,5.90
2023-05-10T13:57:37.873Z,11.50
2023-05-10T13:59:40.857Z,9.43
2023-05-10T14:01:44.549Z,4.30
2023-05-10T14:02:46.082Z,5.75
2023-05-10T14:03:47.685Z,7.20
2023-05-10T14:04:49.186Z,8.10
2023-05-10T14:05:50.753Z,6.13
2023-05-10T14:06:53.802Z,5.63
2023-05-10T14:07:55.420Z,5.95
2023-05-10T14:08:57.342Z,7.15
2023-05-10T14:09:58.716Z,7.47
2023-05-10T14:11:00.158Z,9.38
2023-05-10T14:12:01.568Z,8.93
2023-05-10T14:13:04.158Z,6.13
2023-05-10T14:14:05.567Z,12.88
2023-05-10T14:15:07.711Z,5.47
2023-05-10T14:16:09.357Z,6.53
2023-05-10T14:17:12.385Z,5.03
2023-05-10T14:18:14.067Z,5.13
2023-05-10T14:19:15.596Z,5.43
2023-05-10T14:20:17.203Z,6.53
2023-05-10T14:21:18.636Z,9.18
2023-05-10T14:22:20.064Z,9.75
2023-05-10T14:23:25.297Z,5.22
2023-05-10T14:24:26.738Z,5.53
2023-05-10T14:25:29.014Z,6.70
2023-05-10T14:26:30.432Z,4.60
2023-05-10T14:27:33.242Z,6.30
2023-05-10T14:28:34.787Z,5.78
2023-05-10T14:29:36.534Z,8.35
2023-05-10T14:31:39.657Z,8.57
2023-05-10T14:32:41.100Z,7.32